Time;durP1;ratioP1;P1;durP2;ratioP2;P2;SDS_P1;SDS_P2;PMS_P1;PMS_P2;Temp;Humidity;BMP_temperature;BMP_pressure;BME280_temperature;BME280_humidity;BME280_pressure;Samples;Min_cycle;Max_cycle;Signal;HPM_P1;HPM_P2
2021/07/31 00:00:23;;;;;;;8.87;3.17;;;17.60;99.90;;;;;;5072757;28;20197;-77
2021/07/31 00:02:52;;;;;;;7.43;3.13;;;17.50;99.90;;;;;;5070368;28;20165;-77
2021/07/31 00:05:18;;;;;;;7.50;3.07;;;17.50;1.00;;;;;;5073442;28;20700;-80
2021/07/31 00:07:53;;;;;;;8.70;2.80;;;17.50;1.00;;;;;;5062308;28;20196;-79
2021/07/31 00:10:18;;;;;;;7.07;2.70;;;17.60;1.00;;;;;;5057058;28;20211;-79
2021/07/31 00:12:44;;;;;;;9.90;2.63;;;17.50;1.00;;;;;;5056649;28;20166;-77
2021/07/31 00:15:10;;;;;;;8.60;2.97;;;17.50;99.90;;;;;;5055435;28;20211;-78
2021/07/31 00:17:36;;;;;;;7.77;3.00;;;17.30;1.00;;;;;;5055677;28;20171;-77
2021/07/31 00:20:01;;;;;;;8.77;3.67;;;17.40;99.90;;;;;;5058481;28;20263;-77
2021/07/31 00:22:27;;;;;;;7.10;2.80;;;17.40;25.20;;;;;;5056793;28;20192;-76
2021/07/31 00:24:54;;;;;;;6.23;2.50;;;17.40;1.00;;;;;;5058287;28;20532;-77
2021/07/31 00:27:19;;;;;;;7.13;2.60;;;17.40;99.90;;;;;;5074724;28;20169;-77
2021/07/31 00:29:45;;;;;;;6.20;2.80;;;17.50;66.90;;;;;;5079221;28;20233;-77
2021/07/31 00:32:11;;;;;;;10.20;3.03;;;17.60;1.00;;;;;;5078073;28;20177;-78
2021/07/31 00:34:37;;;;;;;11.40;3.03;;;17.40;99.90;;;;;;5065431;28;20210;-77
2021/07/31 00:37:04;;;;;;;8.40;2.73;;;17.60;99.90;;;;;;5063814;28;20746;-76
2021/07/31 00:39:38;;;;;;;7.87;2.70;;;17.50;44.20;;;;;;5055107;28;20230;-78
2021/07/31 00:42:05;;;;;;;6.70;2.87;;;17.30;99.90;;;;;;5055120;28;20161;-77
2021/07/31 00:44:31;;;;;;;8.27;3.13;;;17.40;1.00;;;;;;5055373;28;20237;-80
2021/07/31 00:46:57;;;;;;;6.17;2.73;;;17.40;51.60;;;;;;5055750;28;20165;-79
2021/07/31 00:49:22;;;;;;;7.87;3.00;;;17.50;99.90;;;;;;5055755;28;20184;-80
2021/07/31 00:51:48;;;;;;;13.37;3.37;;;17.40;99.90;;;;;;5055123;28;20169;-79
2021/07/31 00:54:15;;;;;;;8.90;3.30;;;17.30;99.90;;;;;;5055760;28;20200;-77
2021/07/31 00:56:42;;;;;;;7.17;3.10;;;17.30;99.90;;;;;;5056045;28;20222;-77
2021/07/31 00:59:09;;;;;;;8.50;3.47;;;17.30;99.90;;;;;;5055291;28;20201;-79
2021/07/31 01:01:35;;;;;;;7.47;3.37;;;17.30;1.00;;;;;;5054549;28;20172;-79
2021/07/31 01:04:00;;;;;;;9.47;3.40;;;17.20;1.00;;;;;;5055613;28;20169;-78
2021/07/31 01:06:26;;;;;;;8.53;3.33;;;17.30;1.00;;;;;;5053634;28;20540;-79
2021/07/31 01:08:52;;;;;;;9.20;3.50;;;17.20;1.00;;;;;;5054738;28;20652;-79
2021/07/31 01:11:18;;;;;;;10.43;3.00;;;17.20;1.00;;;;;;5054248;28;20644;-78
2021/07/31 01:13:46;;;;;;;9.60;3.17;;;17.20;75.20;;;;;;5054385;28;20208;-78
2021/07/31 01:16:12;;;;;;;7.53;3.73;;;17.30;99.90;;;;;;5053954;28;20246;-78
2021/07/31 01:18:39;;;;;;;5.80;2.73;;;17.30;99.90;;;;;;5054141;28;20647;-79
2021/07/31 01:21:05;;;;;;;6.57;2.73;;;17.20;99.90;;;;;;5054405;28;20540;-78
2021/07/31 01:23:31;;;;;;;7.37;3.13;;;17.30;99.90;;;;;;5054109;28;20184;-76
2021/07/31 01:25:57;;;;;;;8.07;3.33;;;17.20;99.90;;;;;;5053644;28;20716;-76
2021/07/31 01:28:23;;;;;;;9.47;3.37;;;17.20;99.90;;;;;;5053968;28;20165;-80
2021/07/31 01:30:49;;;;;;;8.70;3.40;;;17.20;99.90;;;;;;5053006;28;20192;-76
2021/07/31 01:33:15;;;;;;;10.80;4.00;;;17.20;99.90;;;;;;5053663;28;20164;-77
2021/07/31 01:35:41;;;;;;;9.33;3.10;;;17.20;1.00;;;;;;5054001;28;20207;-81
2021/07/31 01:38:07;;;;;;;7.13;3.23;;;17.20;1.00;;;;;;5053902;28;20248;-77
2021/07/31 01:40:32;;;;;;;7.50;3.73;;;17.10;1.00;;;;;;5054430;28;20252;-78
2021/07/31 01:42:58;;;;;;;8.47;3.40;;;17.10;1.00;;;;;;5054175;28;20168;-79
2021/07/31 01:45:24;;;;;;;7.13;3.50;;;17.10;1.00;;;;;;5053711;28;20177;-79
2021/07/31 01:47:50;;;;;;;13.30;3.77;;;17.10;1.00;;;;;;5054074;28;20211;-78
2021/07/31 01:50:16;;;;;;;10.07;3.03;;;17.10;1.00;;;;;;5054913;28;20176;-78
2021/07/31 01:52:43;;;;;;;8.73;3.33;;;17.10;1.00;;;;;;5055158;28;20173;-78
2021/07/31 01:55:09;;;;;;;6.50;3.70;;;17.10;1.00;;;;;;5054026;28;20200;-81
2021/07/31 01:57:34;;;;;;;8.33;3.27;;;17.10;1.00;;;;;;5056575;28;20255;-78
2021/07/31 02:00:00;;;;;;;10.57;3.87;;;17.10;1.00;;;;;;5058290;28;20637;-76
2021/07/31 02:02:25;;;;;;;6.90;2.77;;;17.10;1.00;;;;;;5058345;28;20184;-77
2021/07/31 02:04:51;;;;;;;6.20;2.90;;;17.10;1.00;;;;;;5063509;28;20188;-77
2021/07/31 02:07:17;;;;;;;7.10;3.23;;;17.10;1.00;;;;;;5062651;28;20176;-78
2021/07/31 02:09:42;;;;;;;8.40;3.57;;;17.10;1.00;;;;;;5057889;28;20173;-78
2021/07/31 02:12:08;;;;;;;9.60;2.90;;;17.10;1.00;;;;;;5058380;28;20305;-81
2021/07/31 02:14:35;;;;;;;11.30;3.30;;;17.10;1.00;;;;;;5057529;28;20346;-80
2021/07/31 02:17:01;;;;;;;8.67;3.10;;;17.00;1.00;;;;;;5057535;28;20248;-79
2021/07/31 02:19:30;;;;;;;7.73;2.83;;;16.90;1.00;;;;;;5057827;28;20641;-79
2021/07/31 02:21:56;;;;;;;4.23;2.50;;;16.90;1.00;;;;;;5059000;28;20166;-78
2021/07/31 02:24:22;;;;;;;7.50;2.97;;;17.00;1.00;;;;;;5056501;28;20188;-80
2021/07/31 02:26:47;;;;;;;6.13;3.40;;;16.90;1.00;;;;;;5056751;28;20234;-79
2021/07/31 02:29:13;;;;;;;6.30;3.20;;;16.80;1.00;;;;;;5056410;28;20215;-77
2021/07/31 02:31:39;;;;;;;7.37;3.43;;;16.80;1.00;;;;;;5056383;28;20723;-77
2021/07/31 02:34:04;;;;;;;9.57;3.00;;;16.80;1.00;;;;;;5056016;28;20201;-77
2021/07/31 02:36:30;;;;;;;8.43;4.03;;;16.90;1.00;;;;;;5055907;28;20173;-77
2021/07/31 02:38:56;;;;;;;9.07;3.60;;;16.90;1.00;;;;;;5056098;28;20181;-79
2021/07/31 02:41:21;;;;;;;6.87;3.30;;;16.80;1.00;;;;;;5056387;28;20212;-80
2021/07/31 02:43:47;;;;;;;7.57;3.37;;;16.80;1.00;;;;;;5055964;28;20184;-80
2021/07/31 02:46:13;;;;;;;11.43;3.90;;;16.80;1.00;;;;;;5055985;28;20260;-78
2021/07/31 02:48:39;;;;;;;9.13;3.43;;;16.80;1.00;;;;;;5055919;28;20201;-79
2021/07/31 02:51:06;;;;;;;9.20;3.83;;;16.80;1.00;;;;;;5055415;28;20177;-79
2021/07/31 02:53:32;;;;;;;7.47;2.90;;;16.70;1.00;;;;;;5056039;28;20695;-78
2021/07/31 02:55:58;;;;;;;8.20;3.37;;;16.80;1.00;;;;;;5055648;28;20219;-79
2021/07/31 02:58:24;;;;;;;9.00;3.57;;;16.70;1.00;;;;;;5055694;28;20169;-80
2021/07/31 03:00:49;;;;;;;9.73;3.33;;;16.70;1.00;;;;;;5055855;28;20667;-77
2021/07/31 03:03:15;;;;;;;9.73;3.00;;;16.70;1.00;;;;;;5055713;28;20173;-77
2021/07/31 03:05:41;;;;;;;6.27;3.77;;;16.70;1.00;;;;;;5055525;28;20180;-77
2021/07/31 03:08:06;;;;;;;10.63;3.37;;;16.80;1.00;;;;;;5055676;28;20204;-78
2021/07/31 03:10:32;;;;;;;7.93;3.50;;;16.80;1.00;;;;;;5055458;28;20181;-78
2021/07/31 03:12:58;;;;;;;8.60;3.83;;;16.80;1.00;;;;;;5055688;28;20629;-80
2021/07/31 03:15:23;;;;;;;8.07;3.50;;;16.70;1.00;;;;;;5055322;28;20676;-80
2021/07/31 03:17:49;;;;;;;10.87;3.93;;;16.60;1.00;;;;;;5055347;28;20230;-78
2021/07/31 03:20:15;;;;;;;6.53;3.33;;;16.70;1.00;;;;;;5054963;28;20173;-78
2021/07/31 03:22:40;;;;;;;8.97;4.03;;;16.70;1.00;;;;;;5055235;28;20211;-78
2021/07/31 03:25:06;;;;;;;8.90;3.27;;;16.70;1.00;;;;;;5053970;28;20205;-78
2021/07/31 03:27:32;;;;;;;6.67;3.70;;;16.60;1.00;;;;;;5055034;28;20180;-78
2021/07/31 03:29:58;;;;;;;7.70;3.47;;;16.70;1.00;;;;;;5055157;28;20173;-78
2021/07/31 03:32:23;;;;;;;8.17;4.00;;;16.60;1.00;;;;;;5055200;28;20710;-79
2021/07/31 03:34:49;;;;;;;11.30;4.17;;;16.60;1.00;;;;;;5054759;28;20295;-78
2021/07/31 03:37:14;;;;;;;10.67;3.90;;;16.70;1.00;;;;;;5055143;28;20206;-81
2021/07/31 03:39:40;;;;;;;10.40;3.80;;;16.60;1.00;;;;;;5055429;28;20633;-77
2021/07/31 03:42:06;;;;;;;9.00;4.10;;;16.70;1.00;;;;;;5055287;28;20610;-77
2021/07/31 03:44:31;;;;;;;8.63;3.40;;;16.70;1.00;;;;;;5057477;28;20194;-77
2021/07/31 03:46:57;;;;;;;7.20;3.63;;;16.50;1.00;;;;;;5059001;28;20194;-77
2021/07/31 03:49:23;;;;;;;9.63;3.80;;;16.50;1.00;;;;;;5057255;28;20219;-77
2021/07/31 03:51:51;;;;;;;8.30;4.10;;;16.60;1.00;;;;;;5054786;28;20172;-77
2021/07/31 03:54:17;;;;;;;7.33;3.50;;;16.60;1.00;;;;;;5055102;28;20250;-78
2021/07/31 03:56:43;;;;;;;9.17;3.60;;;16.60;1.00;;;;;;5055087;28;20173;-78
2021/07/31 03:59:08;;;;;;;7.83;3.60;;;16.60;1.00;;;;;;5055638;28;20161;-77
2021/07/31 04:01:34;;;;;;;9.87;3.83;;;16.60;1.00;;;;;;5055262;28;20169;-78
2021/07/31 04:04:00;;;;;;;8.97;3.80;;;16.60;1.00;;;;;;5054708;28;20169;-78
2021/07/31 04:06:25;;;;;;;8.47;3.60;;;16.60;1.00;;;;;;5054447;28;20626;-78
2021/07/31 04:08:51;;;;;;;6.70;3.53;;;16.50;1.00;;;;;;5054730;28;20165;-76
2021/07/31 04:11:16;;;;;;;9.87;3.53;;;16.50;1.00;;;;;;5054773;28;20287;-78
2021/07/31 04:13:42;;;;;;;10.07;4.07;;;16.50;1.00;;;;;;5055082;28;20255;-77
2021/07/31 04:16:08;;;;;;;9.43;3.60;;;16.50;1.00;;;;;;5053388;28;20188;-81
2021/07/31 04:18:34;;;;;;;9.00;4.23;;;16.60;1.00;;;;;;5057992;28;20181;-81
2021/07/31 04:21:03;;;;;;;9.30;4.53;;;16.50;1.00;;;;;;5056060;28;20181;-76
2021/07/31 04:23:29;;;;;;;9.17;3.80;;;16.50;1.60;;;;;;5077291;28;20204;-77
2021/07/31 04:25:54;;;;;;;7.93;3.87;;;16.40;4.80;;;;;;5077873;28;20176;-78
2021/07/31 04:28:20;;;;;;;8.47;3.73;;;16.50;6.00;;;;;;5066285;28;20172;-78
2021/07/31 04:30:46;;;;;;;11.23;3.80;;;16.60;4.80;;;;;;5063363;28;20232;-78
2021/07/31 04:33:11;;;;;;;10.00;4.27;;;16.50;8.70;;;;;;5059320;28;20238;-82
2021/07/31 04:35:40;;;;;;;10.63;4.13;;;16.40;9.00;;;;;;5054280;28;20208;-79
2021/07/31 04:38:09;;;;;;;9.10;3.83;;;16.50;11.80;;;;;;5054795;28;20179;-80
2021/07/31 04:40:35;;;;;;;10.70;3.83;;;16.40;13.40;;;;;;5054501;28;20175;-76
2021/07/31 04:43:02;;;;;;;7.43;3.80;;;16.40;15.60;;;;;;5054394;28;20165;-78
2021/07/31 04:45:28;;;;;;;7.60;4.30;;;16.50;15.60;;;;;;5054044;28;20184;-80
2021/07/31 04:47:53;;;;;;;10.43;4.17;;;16.50;15.90;;;;;;5053253;28;20169;-80
2021/07/31 04:50:19;;;;;;;11.03;3.80;;;16.50;16.10;;;;;;5056456;28;20648;-79
2021/07/31 04:52:45;;;;;;;9.00;4.37;;;16.60;16.00;;;;;;5070551;28;20203;-77
2021/07/31 04:55:10;;;;;;;10.63;4.27;;;16.50;18.10;;;;;;5078840;28;20251;-79
2021/07/31 04:57:36;;;;;;;10.13;3.90;;;16.60;18.10;;;;;;5078534;28;20182;-77
2021/07/31 05:00:02;;;;;;;11.87;3.97;;;16.60;20.00;;;;;;5069711;28;20256;-77
2021/07/31 05:02:31;;;;;;;9.23;4.17;;;16.60;16.80;;;;;;5067881;28;20191;-78
2021/07/31 05:05:00;;;;;;;10.33;4.67;;;16.60;18.60;;;;;;5061377;28;20153;-82
2021/07/31 05:07:29;;;;;;;10.17;4.00;;;16.70;17.70;;;;;;5052738;28;20597;-81
2021/07/31 05:09:55;;;;;;;9.50;3.77;;;16.80;15.20;;;;;;5053758;28;20243;-80
2021/07/31 05:12:20;;;;;;;8.87;4.23;;;16.70;17.30;;;;;;5053780;28;20191;-82
2021/07/31 05:14:50;;;;;;;12.60;4.53;;;16.70;18.10;;;;;;5052245;28;20217;-79
2021/07/31 05:17:16;;;;;;;10.97;4.57;;;16.80;13.70;;;;;;5053580;28;20189;-78
2021/07/31 05:19:41;;;;;;;9.30;4.10;;;16.70;14.60;;;;;;5053371;28;20173;-79
2021/07/31 05:22:07;;;;;;;9.57;4.47;;;16.80;13.90;;;;;;5053197;28;20168;-81
2021/07/31 05:24:35;;;;;;;9.27;4.23;;;16.70;14.50;;;;;;5053615;28;20199;-83
2021/07/31 05:27:00;;;;;;;11.83;4.93;;;16.70;15.20;;;;;;5053726;28;20169;-78
2021/07/31 05:29:26;;;;;;;8.73;4.27;;;16.80;13.60;;;;;;5053156;28;20521;-79
2021/07/31 05:31:52;;;;;;;10.57;4.77;;;16.90;10.50;;;;;;5053323;28;20177;-81
2021/07/31 05:34:17;;;;;;;10.97;4.10;;;17.00;8.90;;;;;;5053714;28;20200;-81
2021/07/31 05:36:43;;;;;;;9.97;4.20;;;16.90;8.90;;;;;;5053545;28;20259;-80
2021/07/31 05:39:09;;;;;;;10.13;4.43;;;17.00;9.00;;;;;;5055123;28;20181;-79
2021/07/31 05:41:34;;;;;;;7.90;4.17;;;16.90;8.90;;;;;;5057669;28;20178;-77
2021/07/31 05:44:00;;;;;;;9.37;3.80;;;16.90;9.40;;;;;;5057043;28;20184;-80
2021/07/31 05:46:26;;;;;;;9.53;3.87;;;17.00;7.90;;;;;;5057534;28;20173;-81
2021/07/31 05:48:52;;;;;;;10.03;4.40;;;17.10;5.50;;;;;;5057532;28;20638;-81
2021/07/31 05:51:19;;;;;;;8.40;3.73;;;17.00;6.10;;;;;;5057543;28;20681;-78
2021/07/31 05:53:44;;;;;;;11.00;4.43;;;17.10;1.00;;;;;;5057673;28;20626;-82
2021/07/31 05:56:14;;;;;;;8.60;4.00;;;17.10;1.00;;;;;;5057395;28;20184;-78
2021/07/31 05:58:41;;;;;;;10.57;4.53;;;17.10;1.00;;;;;;5057140;28;20264;-79
2021/07/31 06:01:07;;;;;;;11.47;4.60;;;17.00;1.20;;;;;;5057824;28;20161;-81
2021/07/31 06:03:36;;;;;;;11.03;4.10;;;17.10;1.00;;;;;;5057485;28;20192;-82
2021/07/31 06:06:03;;;;;;;7.73;4.00;;;17.10;1.00;;;;;;5058072;28;20263;-82
2021/07/31 06:08:29;;;;;;;11.63;4.60;;;17.10;1.00;;;;;;5058425;28;20169;-81
2021/07/31 06:11:01;;;;;;;7.27;4.23;;;17.10;1.00;;;;;;5056660;28;20184;-80
2021/07/31 06:13:27;;;;;;;9.37;4.97;;;17.10;2.20;;;;;;5058198;28;20200;-82
2021/07/31 06:15:53;;;;;;;9.40;5.20;;;17.10;1.00;;;;;;5061334;28;20212;-81
2021/07/31 06:18:19;;;;;;;10.00;5.00;;;17.00;1.00;;;;;;5073340;28;20177;-78
2021/07/31 06:20:45;;;;;;;9.33;5.30;;;17.00;2.20;;;;;;5075214;28;20208;-78
2021/07/31 06:23:10;;;;;;;11.27;6.07;;;17.10;1.00;;;;;;5069116;28;20197;-81
2021/07/31 06:25:36;;;;;;;7.30;5.10;;;17.20;1.00;;;;;;5065103;28;20165;-80
2021/07/31 06:28:01;;;;;;;9.50;4.90;;;17.40;1.00;;;;;;5060771;28;20161;-82
2021/07/31 06:30:28;;;;;;;6.47;4.50;;;17.40;1.00;;;;;;5058058;28;20641;-83
2021/07/31 06:32:54;;;;;;;9.30;4.80;;;17.50;1.00;;;;;;5057285;28;20165;-83
2021/07/31 06:35:19;;;;;;;7.13;5.10;;;17.50;1.00;;;;;;5057112;28;20212;-82
2021/07/31 06:37:46;;;;;;;12.03;5.70;;;17.60;1.00;;;;;;5057766;28;20215;-81
2021/07/31 06:40:13;;;;;;;6.70;5.90;;;17.60;1.00;;;;;;5057292;28;20208;-83
2021/07/31 06:42:39;;;;;;;9.20;5.10;;;17.60;1.00;;;;;;5056514;28;20218;-84
2021/07/31 06:45:05;;;;;;;12.97;5.57;;;17.60;1.00;;;;;;5056992;28;20193;-82
2021/07/31 06:47:31;;;;;;;8.13;4.90;;;17.60;1.00;;;;;;5056947;28;20169;-84
2021/07/31 06:49:56;;;;;;;7.07;4.77;;;17.50;1.00;;;;;;5056254;28;20249;-83
2021/07/31 06:52:22;;;;;;;9.77;5.60;;;17.50;1.00;;;;;;5056957;28;20276;-83
2021/07/31 06:54:48;;;;;;;7.93;4.73;;;17.60;1.00;;;;;;5056669;28;20204;-80
2021/07/31 06:57:13;;;;;;;9.40;4.87;;;17.60;1.00;;;;;;5056810;28;20180;-81
2021/07/31 06:59:39;;;;;;;9.73;4.50;;;17.60;1.00;;;;;;5059882;28;20173;-81
2021/07/31 07:02:05;;;;;;;9.83;4.73;;;17.80;1.00;;;;;;5059069;28;20621;-82
2021/07/31 07:04:31;;;;;;;7.00;4.37;;;17.70;1.00;;;;;;5056566;28;20191;-81
2021/07/31 07:06:59;;;;;;;7.13;4.80;;;17.70;1.00;;;;;;5057598;28;20165;-82
2021/07/31 07:09:25;;;;;;;7.17;4.43;;;17.70;1.00;;;;;;5057114;28;20265;-83
2021/07/31 07:11:50;;;;;;;9.70;4.63;;;17.80;1.00;;;;;;5056818;28;20222;-84
2021/07/31 07:14:16;;;;;;;7.53;4.40;;;17.90;1.00;;;;;;5056919;28;20605;-81
2021/07/31 07:16:42;;;;;;;7.07;4.20;;;18.00;1.00;;;;;;5056517;28;20537;-81
2021/07/31 07:19:07;;;;;;;5.90;3.87;;;18.20;1.00;;;;;;5056774;28;20177;-82
2021/07/31 07:21:33;;;;;;;7.80;4.03;;;18.20;99.90;;;;;;5056103;28;20230;-82
2021/07/31 07:23:59;;;;;;;6.90;4.40;;;18.10;99.90;;;;;;5056730;28;20198;-83
2021/07/31 07:26:25;;;;;;;6.63;4.30;;;18.10;1.00;;;;;;5056096;28;20169;-83
2021/07/31 07:28:50;;;;;;;9.10;4.17;;;18.20;1.00;;;;;;5056708;28;20498;-83
2021/07/31 07:31:16;;;;;;;6.80;3.90;;;18.20;99.90;;;;;;5059528;28;20180;-82
2021/07/31 07:33:42;;;;;;;7.17;4.33;;;18.10;99.90;;;;;;5057621;28;20567;-82
2021/07/31 07:36:16;;;;;;;7.87;4.60;;;18.20;99.90;;;;;;5060909;28;20181;-82
2021/07/31 07:38:42;;;;;;;7.10;4.43;;;18.20;1.00;;;;;;5060951;28;20244;-81
2021/07/31 07:41:10;;;;;;;7.23;4.10;;;18.20;1.00;;;;;;5070230;28;20161;-80
2021/07/31 07:43:36;;;;;;;7.10;4.27;;;18.30;1.00;;;;;;5071713;28;20166;-81
2021/07/31 07:46:02;;;;;;;6.77;4.30;;;18.40;1.00;;;;;;5066263;28;20169;-81
2021/07/31 07:48:28;;;;;;;7.90;4.53;;;18.40;1.00;;;;;;5062856;28;20231;-83
2021/07/31 07:50:55;;;;;;;7.73;4.63;;;18.40;1.00;;;;;;5059177;28;20178;-83
2021/07/31 07:53:21;;;;;;;6.03;4.07;;;18.30;1.00;;;;;;5056612;28;20264;-81
2021/07/31 07:55:47;;;;;;;6.43;4.57;;;18.30;99.90;;;;;;5055090;28;20296;-82
2021/07/31 07:58:13;;;;;;;6.93;4.93;;;18.30;93.70;;;;;;5055419;28;20252;-82
2021/07/31 08:00:42;;;;;;;7.53;4.77;;;18.30;1.00;;;;;;5052879;28;20177;-82
2021/07/31 08:03:08;;;;;;;6.47;4.20;;;18.30;99.90;;;;;;5055062;28;20203;-81
2021/07/31 08:05:38;;;;;;;8.07;4.30;;;18.20;1.00;;;;;;5057763;28;20170;-82
2021/07/31 08:08:04;;;;;;;7.13;4.17;;;18.00;62.40;;;;;;5056884;28;20606;-79
2021/07/31 08:10:30;;;;;;;7.30;4.17;;;18.20;99.90;;;;;;5055016;28;20253;-78
2021/07/31 08:12:56;;;;;;;6.33;3.80;;;18.20;99.90;;;;;;5056831;28;20227;-81
2021/07/31 08:15:22;;;;;;;6.13;4.10;;;18.10;1.00;;;;;;5055627;28;20197;-83
2021/07/31 08:17:47;;;;;;;6.97;4.10;;;18.20;99.90;;;;;;5054633;28;20177;-81
2021/07/31 08:20:13;;;;;;;7.30;4.70;;;18.20;32.70;;;;;;5054981;28;20203;-82
2021/07/31 08:22:40;;;;;;;7.20;3.87;;;18.20;1.00;;;;;;5055345;28;20542;-80
2021/07/31 08:25:06;;;;;;;6.93;4.07;;;18.20;99.90;;;;;;5054444;28;20196;-79
2021/07/31 08:27:32;;;;;;;5.53;3.60;;;18.30;1.00;;;;;;5054541;28;20537;-79
2021/07/31 08:29:57;;;;;;;6.00;3.80;;;18.40;1.00;;;;;;5054901;28;20252;-78
2021/07/31 08:32:23;;;;;;;7.67;3.93;;;18.40;1.00;;;;;;5054629;28;20222;-79
2021/07/31 08:34:50;;;;;;;4.83;3.73;;;18.40;99.90;;;;;;5052814;28;20237;-79
2021/07/31 08:37:16;;;;;;;6.10;3.50;;;18.40;1.00;;;;;;5054062;28;20629;-78
2021/07/31 08:39:42;;;;;;;6.17;3.60;;;18.30;1.00;;;;;;5053760;28;20169;-78
2021/07/31 08:42:10;;;;;;;7.93;3.60;;;18.30;99.90;;;;;;5052377;28;20183;-79
2021/07/31 08:44:36;;;;;;;8.40;4.00;;;18.30;99.90;;;;;;5054678;28;20669;-78
2021/07/31 08:47:04;;;;;;;6.80;4.10;;;18.40;99.90;;;;;;5057740;28;20172;-78
2021/07/31 08:49:32;;;;;;;8.40;3.87;;;18.40;99.90;;;;;;5069611;28;20242;-80
2021/07/31 08:51:59;;;;;;;8.33;4.63;;;18.40;1.00;;;;;;5071754;28;20153;-77
2021/07/31 08:54:25;;;;;;;7.47;4.20;;;18.40;1.00;;;;;;5061693;28;20200;-77
2021/07/31 08:56:52;;;;;;;6.73;3.90;;;18.50;1.00;;;;;;5055859;28;20644;-77
2021/07/31 08:59:17;;;;;;;12.57;4.57;;;18.50;1.00;;;;;;5056039;28;20240;-79
2021/07/31 09:01:43;;;;;;;7.50;3.90;;;18.50;1.00;;;;;;5054370;28;20644;-79
2021/07/31 09:04:17;;;;;;;6.97;4.20;;;18.60;1.00;;;;;;5055146;28;20169;-79
2021/07/31 09:06:45;;;;;;;9.77;4.77;;;18.70;1.00;;;;;;5055260;28;20168;-78
2021/07/31 09:09:11;;;;;;;8.93;4.30;;;18.60;29.00;;;;;;5055976;28;20168;-79
2021/07/31 09:11:59;;;;;;;7.87;4.13;;;18.70;99.90;;;;;;5056042;28;20166;-83
2021/07/31 09:14:26;;;;;;;7.40;3.97;;;18.60;1.00;;;;;;5053558;28;20284;-80
2021/07/31 09:16:52;;;;;;;10.10;4.30;;;18.60;99.90;;;;;;5054115;28;20626;-80
2021/07/31 09:19:19;;;;;;;6.50;4.37;;;18.60;99.90;;;;;;5058838;28;20184;-80
2021/07/31 09:21:45;;;;;;;7.73;4.27;;;18.70;1.00;;;;;;5074242;28;20170;-78
2021/07/31 09:24:23;;;;;;;6.90;4.43;;;18.80;1.00;;;;;;5068872;28;20184;-82
2021/07/31 09:26:54;;;;;;;7.83;5.23;;;18.90;1.00;;;;;;5061240;28;20168;-81
2021/07/31 09:29:28;;;;;;;6.47;4.00;;;19.00;1.00;;;;;;5053646;28;20169;-81
2021/07/31 09:32:15;;;;;;;8.13;4.27;;;19.00;99.90;;;;;;5054087;28;20184;-81
2021/07/31 09:34:46;;;;;;;4.63;3.23;;;19.00;1.00;;;;;;5053830;28;20325;-81
2021/07/31 09:37:23;;;;;;;6.30;3.63;;;19.10;99.90;;;;;;5052830;28;20224;-82
2021/07/31 09:39:57;;;;;;;5.90;3.03;;;18.90;99.90;;;;;;5056775;28;20203;-81
2021/07/31 09:42:31;;;;;;;7.10;3.13;;;18.80;1.00;;;;;;5054917;28;20593;-78
2021/07/31 09:45:05;;;;;;;4.47;3.57;;;18.80;1.00;;;;;;5055051;28;20185;-83
2021/07/31 09:47:31;;;;;;;6.77;3.43;;;18.70;81.80;;;;;;5053500;28;20696;-80
2021/07/31 09:50:00;;;;;;;8.00;3.60;;;18.70;99.90;;;;;;5052337;28;20184;-81
2021/07/31 09:52:27;;;;;;;4.40;3.43;;;18.80;1.00;;;;;;5054050;28;20169;-82
2021/07/31 09:54:56;;;;;;;7.80;3.50;;;18.90;1.00;;;;;;5054783;28;20692;-81
2021/07/31 09:57:24;;;;;;;6.57;3.70;;;18.90;99.90;;;;;;5054291;28;20166;-83
2021/07/31 09:59:54;;;;;;;7.13;3.67;;;19.20;99.90;;;;;;5052518;28;20636;-81
2021/07/31 10:02:21;;;;;;;6.93;3.97;;;19.30;1.00;;;;;;5054335;28;20165;-81
2021/07/31 10:04:48;;;;;;;8.30;3.87;;;19.40;99.90;;;;;;5052056;28;20177;-82
2021/07/31 10:07:15;;;;;;;6.70;4.17;;;19.50;1.00;;;;;;5053999;28;20181;-82
2021/07/31 10:09:49;;;;;;;6.73;3.53;;;19.60;1.00;;;;;;5054930;28;20177;-82
2021/07/31 10:12:17;;;;;;;7.00;4.70;;;19.70;1.00;;;;;;5054846;28;20181;-82
2021/07/31 10:14:43;;;;;;;7.07;4.27;;;19.90;99.90;;;;;;5053143;28;20216;-81
2021/07/31 10:17:10;;;;;;;11.10;4.40;;;20.00;99.90;;;;;;5053751;28;20169;-82
2021/07/31 10:19:39;;;;;;;7.83;4.03;;;20.10;1.00;;;;;;5053175;28;20178;-78
2021/07/31 10:22:04;;;;;;;7.07;3.97;;;20.20;1.00;;;;;;5052868;28;20169;-80
2021/07/31 10:25:10;;;;;;;6.33;3.93;;;20.30;99.90;;;;;;5054673;28;20192;-80
2021/07/31 10:27:36;;;;;;;6.63;3.53;;;20.40;97.90;;;;;;5055114;28;20621;-80
2021/07/31 10:30:05;;;;;;;7.73;3.60;;;20.10;99.90;;;;;;5056339;28;20227;-78
2021/07/31 10:32:34;;;;;;;4.57;2.63;;;20.00;61.60;;;;;;5056838;28;20165;-83
2021/07/31 10:35:05;;;;;;;4.80;2.50;;;20.00;1.00;;;;;;5055865;28;20204;-82
2021/07/31 10:37:31;;;;;;;3.27;2.60;;;20.00;1.00;;;;;;5056608;28;20189;-80
2021/07/31 10:40:04;;;;;;;5.53;2.77;;;20.10;1.00;;;;;;5058033;28;20631;-78
2021/07/31 10:42:52;;;;;;;5.07;2.57;;;20.10;1.00;;;;;;5069400;28;20165;-77
2021/07/31 10:45:23;;;;;;;6.07;2.80;;;20.10;99.90;;;;;;5069445;28;20186;-78
2021/07/31 10:47:57;;;;;;;3.67;2.73;;;20.10;99.90;;;;;;5072346;28;20161;-77
2021/07/31 10:50:23;;;;;;;3.40;2.33;;;20.20;99.90;;;;;;5068880;28;20224;-79
2021/07/31 10:52:52;;;;;;;4.10;2.30;;;20.30;99.90;;;;;;5057690;28;20656;-77
2021/07/31 10:55:19;;;;;;;5.37;2.27;;;20.20;99.90;;;;;;5057746;28;20216;-78
2021/07/31 10:57:54;;;;;;;4.20;1.80;;;20.20;99.90;;;;;;5056588;28;20246;-79
2021/07/31 11:00:24;;;;;;;5.47;2.07;;;20.30;97.70;;;;;;5056102;28;20238;-78
2021/07/31 11:02:50;;;;;;;4.87;2.77;;;20.30;99.90;;;;;;5057515;28;20203;-80
2021/07/31 11:05:17;;;;;;;5.27;3.23;;;20.60;99.90;;;;;;5057496;28;20173;-80
2021/07/31 11:07:57;;;;;;;6.20;3.47;;;20.80;1.00;;;;;;5062819;28;20204;-78
2021/07/31 11:10:43;;;;;;;8.40;3.67;;;21.10;1.00;;;;;;5056693;28;20188;-79
2021/07/31 11:13:17;;;;;;;7.90;3.80;;;21.10;1.00;;;;;;5055937;28;20210;-79
2021/07/31 11:16:02;;;;;;;5.63;3.90;;;21.10;1.00;;;;;;5055564;28;20217;-79
2021/07/31 11:18:37;;;;;;;7.40;4.17;;;21.10;1.00;;;;;;5055512;28;20174;-80
2021/07/31 11:21:26;;;;;;;6.77;4.10;;;20.70;99.90;;;;;;5055631;28;20201;-78
2021/07/31 11:24:04;;;;;;;6.63;4.27;;;20.70;99.90;;;;;;5055870;28;20316;-79
2021/07/31 11:26:32;;;;;;;7.17;4.33;;;20.80;99.90;;;;;;5056342;28;20291;-79
2021/07/31 11:28:59;;;;;;;6.50;4.17;;;20.90;99.90;;;;;;5057125;28;20171;-78
2021/07/31 11:31:25;;;;;;;7.50;3.63;;;20.90;99.90;;;;;;5066476;28;20261;-79
2021/07/31 11:33:57;;;;;;;8.93;3.90;;;20.90;1.00;;;;;;5069745;28;20171;-77
2021/07/31 11:36:22;;;;;;;4.73;3.57;;;20.90;1.00;;;;;;5060845;28;20179;-77
2021/07/31 11:38:52;;;;;;;5.33;3.50;;;20.90;1.00;;;;;;5055160;28;20255;-78
2021/07/31 11:41:18;;;;;;;6.27;4.10;;;21.00;1.00;;;;;;5055668;28;20218;-79
2021/07/31 11:43:49;;;;;;;7.63;4.33;;;20.80;1.00;;;;;;5057415;28;20181;-79
2021/07/31 11:46:41;;;;;;;8.40;4.90;;;20.90;1.00;;;;;;5055790;28;20233;-79
2021/07/31 11:49:12;;;;;;;9.03;3.97;;;20.90;43.60;;;;;;5054858;28;20580;-80
2021/07/31 11:51:42;;;;;;;7.10;4.00;;;21.10;1.00;;;;;;5059845;28;20256;-78
2021/07/31 11:54:08;;;;;;;7.33;3.80;;;21.20;1.00;;;;;;5060088;28;20755;-79
2021/07/31 11:56:36;;;;;;;7.00;3.60;;;21.20;1.00;;;;;;5054717;28;20199;-84
2021/07/31 11:59:05;;;;;;;7.20;3.60;;;21.30;1.00;;;;;;5055517;28;20196;-80
2021/07/31 12:01:32;;;;;;;6.20;4.00;;;21.40;1.00;;;;;;5057440;28;20186;-79
2021/07/31 12:03:59;;;;;;;6.77;4.10;;;21.40;1.00;;;;;;5059728;28;20520;-79
2021/07/31 12:06:30;;;;;;;6.53;3.80;;;21.30;99.90;;;;;;5056636;28;20250;-81
2021/07/31 12:09:01;;;;;;;7.23;3.83;;;21.30;99.90;;;;;;5053225;28;20525;-81
2021/07/31 12:11:45;;;;;;;6.50;3.90;;;21.10;99.90;;;;;;5053206;28;20267;-80
2021/07/31 12:14:37;;;;;;;5.93;3.83;;;21.10;1.00;;;;;;5054771;28;20196;-80
2021/07/31 12:17:10;;;;;;;5.30;3.73;;;21.00;99.90;;;;;;5053789;28;20204;-80
2021/07/31 12:19:46;;;;;;;7.20;4.00;;;20.80;1.00;;;;;;5055649;28;20218;-79
2021/07/31 12:22:15;;;;;;;6.50;3.90;;;20.90;1.00;;;;;;5055673;28;20638;-84
2021/07/31 12:24:41;;;;;;;6.70;4.07;;;21.00;1.00;;;;;;5054860;28;20549;-82
2021/07/31 12:27:07;;;;;;;8.30;4.93;;;21.20;1.00;;;;;;5054800;28;20280;-81
2021/07/31 12:29:34;;;;;;;7.93;3.87;;;21.40;99.90;;;;;;5054967;28;20186;-80
2021/07/31 12:32:26;;;;;;;8.33;3.90;;;21.50;99.90;;;;;;5053841;28;20175;-79
2021/07/31 12:34:54;;;;;;;7.23;3.50;;;21.60;99.90;;;;;;5055112;28;20286;-84
2021/07/31 12:37:22;;;;;;;5.33;3.70;;;21.70;99.90;;;;;;5054975;28;20178;-83
2021/07/31 12:39:50;;;;;;;4.83;2.70;;;21.80;81.70;;;;;;5055059;28;20712;-84
2021/07/31 12:42:16;;;;;;;3.77;3.03;;;21.90;1.00;;;;;;5055657;28;20175;-82
2021/07/31 12:44:41;;;;;;;5.23;2.97;;;22.10;1.00;;;;;;5055018;28;20268;-83
2021/07/31 12:47:11;;;;;;;4.00;2.70;;;22.40;1.00;;;;;;5052712;28;20648;-83
2021/07/31 12:49:37;;;;;;;6.10;3.20;;;22.40;1.00;;;;;;5054013;28;20191;-80
2021/07/31 12:52:06;;;;;;;3.43;2.50;;;22.30;1.00;;;;;;5053839;28;20637;-84
2021/07/31 12:54:32;;;;;;;7.23;2.67;;;22.10;1.00;;;;;;5053910;28;20253;-79